createdAt,value
2019-02-22T00:00:54.058Z,49.80
2019-02-22T00:03:22.366Z,49.70
2019-02-22T00:05:50.739Z,49.50
2019-02-22T00:08:19.403Z,49.60
2019-02-22T00:10:47.699Z,49.60
2019-02-22T00:13:16.009Z,49.60
2019-02-22T00:15:44.309Z,49.60
2019-02-22T00:18:12.598Z,49.50
2019-02-22T00:20:41.344Z,49.60
2019-02-22T00:23:10.189Z,49.60
2019-02-22T00:25:38.475Z,49.90
2019-02-22T00:28:06.782Z,50.00
2019-02-22T00:30:35.074Z,49.90
2019-02-22T00:33:03.382Z,50.00
2019-02-22T00:35:31.757Z,50.00
2019-02-22T00:38:00.463Z,49.50
2019-02-22T00:40:28.781Z,49.60
2019-02-22T00:42:57.084Z,49.70
2019-02-22T00:45:25.378Z,49.70
2019-02-22T00:47:53.970Z,49.90
2019-02-22T00:50:22.656Z,49.80
2019-02-22T00:52:51.236Z,49.70
2019-02-22T00:55:19.841Z,49.50
2019-02-22T00:57:48.122Z,49.50
2019-02-22T01:00:16.439Z,49.50
2019-02-22T01:02:45.061Z,49.60
2019-02-22T01:05:13.409Z,49.70
2019-02-22T01:07:41.774Z,49.70
2019-02-22T01:10:10.062Z,49.60
2019-02-22T01:12:38.685Z,49.50
2019-02-22T01:15:07.143Z,49.70
2019-02-22T01:17:35.443Z,49.60
2019-02-22T01:20:04.547Z,49.70
2019-02-22T01:22:32.860Z,49.60
2019-02-22T01:25:01.138Z,49.50
2019-02-22T01:27:29.872Z,49.80
2019-02-22T01:29:58.178Z,49.90
2019-02-22T01:32:26.519Z,49.70
2019-02-22T01:34:54.862Z,49.60
2019-02-22T01:37:23.496Z,49.60
2019-02-22T01:39:52.084Z,49.60
2019-02-22T01:42:20.389Z,49.70
2019-02-22T01:44:48.683Z,49.70
2019-02-22T01:47:16.992Z,49.50
2019-02-22T01:49:45.591Z,49.60
2019-02-22T01:52:13.896Z,49.50
2019-02-22T01:54:42.275Z,49.40
2019-02-22T01:57:10.826Z,49.50
2019-02-22T01:59:39.424Z,49.50
2019-02-22T02:02:07.742Z,49.40
2019-02-22T02:04:36.384Z,49.50
2019-02-22T02:07:05.184Z,49.50
2019-02-22T02:09:33.481Z,49.50
2019-02-22T02:12:02.157Z,49.40
2019-02-22T02:14:30.916Z,49.40
2019-02-22T02:16:59.495Z,49.40
2019-02-22T02:19:27.803Z,49.40
2019-02-22T02:21:56.364Z,49.40
2019-02-22T02:24:24.958Z,49.40
2019-02-22T02:26:53.645Z,49.40
2019-02-22T02:29:21.929Z,49.40
2019-02-22T02:31:50.236Z,49.40
2019-02-22T02:34:18.531Z,49.40
2019-02-22T02:36:46.841Z,49.30
2019-02-22T02:39:15.134Z,50.10
2019-02-22T02:41:43.439Z,49.30
2019-02-22T02:44:11.734Z,49.30
2019-02-22T02:46:40.024Z,49.30
2019-02-22T02:49:08.344Z,49.30
2019-02-22T02:51:36.912Z,49.30
2019-02-22T02:54:05.493Z,49.30
2019-02-22T02:56:33.796Z,49.40
2019-02-22T02:59:02.097Z,49.50
2019-02-22T03:01:30.464Z,49.10
2019-02-22T03:03:59.109Z,49.00
2019-02-22T03:06:38.151Z,48.90
2019-02-22T03:09:08.365Z,48.90
2019-02-22T03:11:36.959Z,49.00
2019-02-22T03:14:05.591Z,48.90
2019-02-22T03:16:33.904Z,49.00
2019-02-22T03:19:02.195Z,49.30
2019-02-22T03:21:30.769Z,48.90
2019-02-22T03:23:59.060Z,48.90
2019-02-22T03:26:27.363Z,48.80
2019-02-22T03:28:55.655Z,48.60
2019-02-22T03:31:24.027Z,48.60
2019-02-22T03:33:52.335Z,48.60
2019-02-22T03:36:20.739Z,48.50
2019-02-22T03:38:49.117Z,48.60
2019-02-22T03:41:17.704Z,48.70
2019-02-22T03:43:46.121Z,48.60
2019-02-22T03:46:14.412Z,48.50
2019-02-22T03:48:43.044Z,48.60
2019-02-22T03:51:11.471Z,48.70
2019-02-22T03:53:41.741Z,48.90
2019-02-22T03:56:10.422Z,48.80
2019-02-22T03:58:38.737Z,48.80
2019-02-22T04:01:07.038Z,48.70
2019-02-22T04:03:35.365Z,48.90
2019-02-22T04:06:03.727Z,49.00
2019-02-22T04:08:32.026Z,48.90
2019-02-22T04:11:00.346Z,49.00
2019-02-22T04:13:28.662Z,48.80
2019-02-22T04:15:57.259Z,48.80
2019-02-22T04:18:25.839Z,48.80
2019-02-22T04:20:54.146Z,48.70
2019-02-22T04:23:22.808Z,48.80
2019-02-22T04:25:51.173Z,48.80
2019-02-22T04:28:19.766Z,49.00
2019-02-22T04:30:48.057Z,49.00
2019-02-22T04:33:16.427Z,48.70
2019-02-22T04:35:45.009Z,48.80
2019-02-22T04:38:13.605Z,48.60
2019-02-22T04:40:41.940Z,48.40
2019-02-22T04:43:10.258Z,49.20
2019-02-22T04:45:38.820Z,48.60
2019-02-22T04:48:07.135Z,48.50
2019-02-22T04:50:35.422Z,48.60
2019-02-22T04:53:04.167Z,48.70
2019-02-22T04:55:32.449Z,48.70
2019-02-22T04:58:00.735Z,48.80
2019-02-22T05:00:29.407Z,48.70
2019-02-22T05:02:57.701Z,48.80
2019-02-22T05:05:26.105Z,48.80
2019-02-22T05:07:54.477Z,48.80
2019-02-22T05:10:23.078Z,48.90
2019-02-22T05:12:51.660Z,48.80
2019-02-22T05:15:19.946Z,48.60
2019-02-22T05:17:48.263Z,48.70
2019-02-22T05:20:16.902Z,48.40
2019-02-22T05:22:45.192Z,48.40
2019-02-22T05:25:13.483Z,48.60
2019-02-22T05:27:41.774Z,48.50
2019-02-22T05:30:10.068Z,48.50
2019-02-22T05:32:38.369Z,48.60
2019-02-22T05:35:06.652Z,48.60
2019-02-22T05:37:34.952Z,48.70
2019-02-22T05:40:03.507Z,48.70
2019-02-22T05:42:33.449Z,48.80
2019-02-22T05:45:02.029Z,48.90
2019-02-22T05:47:30.334Z,48.80
2019-02-22T05:49:58.626Z,48.80
2019-02-22T05:52:27.263Z,48.80
2019-02-22T05:54:55.848Z,49.00
2019-02-22T05:57:24.488Z,48.70
2019-02-22T05:59:53.119Z,48.70
2019-02-22T06:02:21.709Z,48.50
2019-02-22T06:04:50.283Z,48.30
2019-02-22T06:07:18.865Z,48.60
2019-02-22T06:09:47.262Z,48.60
2019-02-22T06:12:18.413Z,48.60
2019-02-22T06:14:46.155Z,48.80
2019-02-22T06:17:15.069Z,48.80
2019-02-22T06:19:43.728Z,48.60
2019-02-22T06:22:12.341Z,49.40
2019-02-22T06:24:40.995Z,48.70
2019-02-22T06:27:09.683Z,48.80
2019-02-22T06:29:38.010Z,48.80
2019-02-22T06:32:06.299Z,48.80
2019-02-22T06:34:34.925Z,48.80
2019-02-22T06:37:03.227Z,48.80
2019-02-22T06:39:31.545Z,48.80
2019-02-22T06:42:00.163Z,48.80
2019-02-22T06:44:28.495Z,48.80
2019-02-22T06:49:29.019Z,48.80
2019-02-22T06:51:57.397Z,48.90
2019-02-22T06:54:25.695Z,48.80
2019-02-22T06:56:53.994Z,48.80
2019-02-22T06:59:22.302Z,48.80
2019-02-22T07:01:50.884Z,49.00
2019-02-22T07:04:19.194Z,49.00
2019-02-22T07:06:47.851Z,49.00
2019-02-22T07:09:16.226Z,49.00
2019-02-22T07:11:46.170Z,49.10
2019-02-22T07:14:14.460Z,49.00
2019-02-22T07:16:42.779Z,49.00
2019-02-22T07:19:11.075Z,49.00
2019-02-22T07:21:51.858Z,49.10
2019-02-22T07:24:09.408Z,49.20
2019-02-22T07:26:37.722Z,49.10
2019-02-22T07:29:06.003Z,49.10
2019-02-22T07:31:34.316Z,49.20
2019-02-22T07:34:02.616Z,49.20
2019-02-22T07:36:31.259Z,49.20
2019-02-22T07:38:59.847Z,49.20
2019-02-22T07:41:28.134Z,49.20
2019-02-22T07:43:56.444Z,49.20
2019-02-22T07:46:24.731Z,49.10
2019-02-22T07:48:53.363Z,49.20
2019-02-22T07:51:21.654Z,49.20
2019-02-22T07:53:50.223Z,49.40
2019-02-22T07:56:19.168Z,49.10
2019-02-22T07:58:48.086Z,49.20
2019-02-22T08:01:16.795Z,49.20
2019-02-22T08:03:45.078Z,49.30
2019-02-22T08:06:13.389Z,49.20
2019-02-22T08:08:41.679Z,49.40
2019-02-22T08:11:09.983Z,49.20
2019-02-22T08:13:38.591Z,49.00
2019-02-22T08:16:06.901Z,49.30
2019-02-22T08:18:35.207Z,49.20
2019-02-22T08:21:05.506Z,49.30
2019-02-22T08:23:33.851Z,49.00
2019-02-22T08:26:02.130Z,49.00
2019-02-22T08:28:30.491Z,48.70
2019-02-22T08:30:58.812Z,48.90
2019-02-22T08:33:27.098Z,49.00
2019-02-22T08:35:55.761Z,49.00
2019-02-22T08:38:24.102Z,48.90
2019-02-22T08:40:52.702Z,49.10
2019-02-22T08:43:31.021Z,48.90
2019-02-22T08:45:51.207Z,48.80
2019-02-22T08:48:19.527Z,49.00
2019-02-22T08:50:48.066Z,48.90
2019-02-22T08:53:16.424Z,48.90
2019-02-22T08:55:45.015Z,49.00
2019-02-22T08:58:13.607Z,49.20
2019-02-22T09:00:41.894Z,48.90
2019-02-22T09:03:10.190Z,48.80
2019-02-22T09:05:38.746Z,48.80
2019-02-22T09:08:07.026Z,49.10
2019-02-22T09:10:35.603Z,49.10
2019-02-22T09:13:03.894Z,49.20
2019-02-22T09:15:32.249Z,49.40
2019-02-22T09:18:00.558Z,49.30
2019-02-22T09:20:30.875Z,49.30
2019-02-22T09:22:59.230Z,49.40
2019-02-22T09:25:27.606Z,49.20
2019-02-22T09:27:55.916Z,49.30
2019-02-22T09:30:24.501Z,49.30
2019-02-22T09:32:52.808Z,49.30
2019-02-22T09:35:21.472Z,49.40
2019-02-22T09:37:49.839Z,49.40
2019-02-22T09:40:18.237Z,49.50
2019-02-22T09:42:46.547Z,49.50
2019-02-22T09:45:15.172Z,49.50
2019-02-22T09:47:43.740Z,49.60
2019-02-22T09:50:16.286Z,49.50
2019-02-22T09:52:44.668Z,49.40
2019-02-22T09:55:13.718Z,49.40
2019-02-22T09:57:42.245Z,49.80
2019-02-22T10:00:14.315Z,49.60
2019-02-22T10:02:44.707Z,49.50
2019-02-22T10:05:12.657Z,49.60
2019-02-22T10:07:40.972Z,49.60
2019-02-22T10:10:10.507Z,49.80
2019-02-22T10:12:38.813Z,49.60
2019-02-22T10:15:08.653Z,49.50
2019-02-22T10:17:36.963Z,49.50
2019-02-22T10:20:10.202Z,49.70
2019-02-22T10:22:38.577Z,49.70
2019-02-22T10:25:07.760Z,49.60
2019-02-22T10:27:36.335Z,49.70
2019-02-22T10:30:08.104Z,49.60
2019-02-22T10:32:36.729Z,49.70
2019-02-22T10:35:05.900Z,50.00
2019-02-22T10:37:34.462Z,50.00
2019-02-22T10:40:03.024Z,49.90
2019-02-22T10:42:31.731Z,50.10
2019-02-22T10:45:00.379Z,50.00
2019-02-22T10:47:29.111Z,50.00
2019-02-22T10:49:57.699Z,49.90
2019-02-22T10:52:26.354Z,49.70
2019-02-22T10:54:55.077Z,49.60
2019-02-22T10:57:23.751Z,49.80
2019-02-22T10:59:52.059Z,49.70
2019-02-22T11:02:20.619Z,49.60
2019-02-22T11:04:48.936Z,49.50
2019-02-22T11:07:17.573Z,49.50
2019-02-22T11:09:46.158Z,49.70
2019-02-22T11:12:14.467Z,49.70
2019-02-22T11:14:43.049Z,49.70
2019-02-22T11:17:11.338Z,49.90
2019-02-22T11:19:40.023Z,49.90
2019-02-22T11:22:08.313Z,49.90
2019-02-22T11:24:36.637Z,50.00
2019-02-22T11:27:04.923Z,50.10
2019-02-22T11:29:33.529Z,49.50
2019-02-22T11:32:01.862Z,49.80
2019-02-22T11:34:30.207Z,49.70
2019-02-22T11:36:58.485Z,50.00
2019-02-22T11:39:26.803Z,49.80
2019-02-22T11:41:55.097Z,49.90
2019-02-22T11:44:23.698Z,50.30
2019-02-22T11:46:52.021Z,49.90
2019-02-22T11:49:20.310Z,49.80
2019-02-22T11:51:48.944Z,50.10
2019-02-22T11:54:17.278Z,50.10
2019-02-22T11:56:45.628Z,50.10
2019-02-22T11:59:14.522Z,50.10
2019-02-22T12:01:43.166Z,50.20
2019-02-22T12:04:11.755Z,50.20
2019-02-22T12:06:40.063Z,50.20
2019-02-22T12:09:08.721Z,50.10
2019-02-22T12:11:37.066Z,50.20
2019-02-22T12:14:05.354Z,50.00
2019-02-22T12:16:34.039Z,49.30
2019-02-22T12:19:02.744Z,48.90
2019-02-22T12:21:31.050Z,49.00
2019-02-22T12:23:59.338Z,49.20
2019-02-22T12:26:27.672Z,49.60
2019-02-22T12:28:55.979Z,49.60
2019-02-22T12:31:24.641Z,49.60
2019-02-22T12:33:53.104Z,49.60
2019-02-22T12:36:21.736Z,49.70
2019-02-22T12:38:50.506Z,49.70
2019-02-22T12:41:18.806Z,49.60
2019-02-22T12:43:47.117Z,49.60
2019-02-22T12:46:15.727Z,49.60
2019-02-22T12:48:44.348Z,49.70
2019-02-22T12:51:13.003Z,49.70
2019-02-22T12:53:41.311Z,49.70
2019-02-22T12:56:11.625Z,49.80
2019-02-22T12:58:39.993Z,49.70
2019-02-22T13:01:08.291Z,49.70
2019-02-22T13:03:36.694Z,49.70
2019-02-22T13:06:05.332Z,49.90
2019-02-22T13:08:33.906Z,49.70
2019-02-22T13:11:02.200Z,50.10
2019-02-22T13:13:30.549Z,49.90
2019-02-22T13:15:58.830Z,49.90
2019-02-22T13:18:27.431Z,50.10
2019-02-22T13:20:55.726Z,50.20
2019-02-22T13:23:24.032Z,50.10
2019-02-22T13:25:52.659Z,49.90
2019-02-22T13:28:20.979Z,49.80
2019-02-22T13:30:49.270Z,50.10
2019-02-22T13:33:18.419Z,50.00
2019-02-22T13:35:47.172Z,50.70
2019-02-22T13:38:15.574Z,49.90
2019-02-22T13:40:43.883Z,50.10
2019-02-22T13:43:12.651Z,50.50
2019-02-22T13:45:40.971Z,50.50
2019-02-22T13:48:09.617Z,50.50
2019-02-22T13:50:38.246Z,50.50
2019-02-22T13:53:06.887Z,50.50
2019-02-22T13:55:35.465Z,50.70
2019-02-22T13:58:03.779Z,50.50
2019-02-22T14:00:32.437Z,50.60
2019-02-22T14:03:01.058Z,50.60
2019-02-22T14:05:29.711Z,50.50
2019-02-22T14:07:58.387Z,50.70
2019-02-22T14:10:26.977Z,50.70
2019-02-22T14:12:55.670Z,50.60
2019-02-22T14:15:24.472Z,50.60
2019-02-22T14:17:53.120Z,50.70
2019-02-22T14:20:23.214Z,50.50
2019-02-22T14:22:51.813Z,50.60
2019-02-22T14:25:20.131Z,50.60
2019-02-22T14:27:48.511Z,50.50
2019-02-22T14:30:17.766Z,50.70
2019-02-22T14:32:49.655Z,50.60
2019-02-22T14:35:18.353Z,50.90
2019-02-22T14:37:48.001Z,50.80
2019-02-22T14:40:21.857Z,50.90
2019-02-22T14:42:50.451Z,51.00
2019-02-22T14:45:18.846Z,51.00
2019-02-22T14:47:47.183Z,51.00
2019-02-22T14:50:19.114Z,51.40
2019-02-22T14:52:47.271Z,51.10
2019-02-22T14:55:15.872Z,51.50
2019-02-22T14:57:45.218Z,51.80
2019-02-22T15:00:19.545Z,51.60
2019-02-22T15:02:49.514Z,51.50
2019-02-22T15:05:17.877Z,51.60
2019-02-22T15:07:46.524Z,51.80
2019-02-22T15:10:14.884Z,52.60
2019-02-22T15:12:43.483Z,52.60
2019-02-22T15:15:16.695Z,52.20
2019-02-22T15:17:49.761Z,51.80
2019-02-22T15:20:18.159Z,52.10
2019-02-22T15:22:46.469Z,52.20
2019-02-22T15:25:16.398Z,52.30
2019-02-22T15:27:49.545Z,52.10
2019-02-22T15:30:18.047Z,52.20
2019-02-22T15:32:46.405Z,52.10
2019-02-22T15:35:16.139Z,52.10
2019-02-22T15:37:47.543Z,52.00
2019-02-22T15:40:16.935Z,52.60
2019-02-22T15:42:45.546Z,52.00
2019-02-22T15:45:16.123Z,51.80
2019-02-22T15:47:44.530Z,52.10
2019-02-22T15:50:14.936Z,52.00
2019-02-22T15:52:43.959Z,52.00
2019-02-22T15:55:14.365Z,51.80
2019-02-22T15:57:42.781Z,51.80
2019-02-22T16:00:33.989Z,51.70
2019-02-22T16:03:02.317Z,51.80
2019-02-22T16:05:35.272Z,51.70
2019-02-22T16:08:03.947Z,51.70
2019-02-22T16:10:32.276Z,51.70
2019-02-22T16:13:00.572Z,51.60
2019-02-22T16:15:29.293Z,52.40
2019-02-22T16:17:57.650Z,51.70
2019-02-22T16:20:26.032Z,51.60
2019-02-22T16:22:54.713Z,51.70
2019-02-22T16:25:23.402Z,51.70
2019-02-22T16:27:51.987Z,51.50
2019-02-22T16:30:22.328Z,51.40
2019-02-22T16:32:50.662Z,51.50
2019-02-22T16:35:19.495Z,51.60
2019-02-22T16:37:48.072Z,51.70
2019-02-22T16:40:16.860Z,51.90
2019-02-22T16:42:45.431Z,51.90
2019-02-22T16:45:14.130Z,51.80
2019-02-22T16:47:42.706Z,51.50
2019-02-22T16:50:13.651Z,51.30
2019-02-22T16:52:41.951Z,51.10
2019-02-22T16:55:15.312Z,51.00
2019-02-22T16:57:43.721Z,50.90
2019-02-22T17:00:14.036Z,50.90
2019-02-22T17:02:42.672Z,51.00
2019-02-22T17:05:15.625Z,50.70
2019-02-22T17:07:44.018Z,50.80
2019-02-22T17:10:12.344Z,50.60
2019-02-22T17:12:41.039Z,50.80
2019-02-22T17:15:11.521Z,50.40
2019-02-22T17:17:39.873Z,50.90
2019-02-22T17:20:12.437Z,51.10
2019-02-22T17:22:40.741Z,51.90
2019-02-22T17:25:17.026Z,52.10
2019-02-22T17:27:45.748Z,52.20
2019-02-22T17:30:16.111Z,52.30
2019-02-22T17:32:44.809Z,52.40
2019-02-22T17:35:13.445Z,52.40
2019-02-22T17:37:41.762Z,52.50
2019-02-22T17:40:12.979Z,52.40
2019-02-22T17:42:41.679Z,52.60
2019-02-22T17:45:10.331Z,52.80
2019-02-22T17:47:38.952Z,52.60
2019-02-22T17:50:10.688Z,52.40
2019-02-22T17:52:39.359Z,52.20
2019-02-22T17:55:09.521Z,51.90
2019-02-22T17:57:38.176Z,51.60
2019-02-22T18:00:14.345Z,51.40
2019-02-22T18:02:42.722Z,51.50
2019-02-22T18:05:11.306Z,51.80
2019-02-22T18:07:39.739Z,52.00
2019-02-22T18:10:10.129Z,52.30
2019-02-22T18:12:38.882Z,53.40
2019-02-22T18:15:09.690Z,52.90
2019-02-22T18:17:38.234Z,54.20
2019-02-22T18:20:09.171Z,54.20
2019-02-22T18:22:38.027Z,54.20
2019-02-22T18:25:08.506Z,54.00
2019-02-22T18:27:37.155Z,54.20
2019-02-22T18:30:12.101Z,54.10
2019-02-22T18:32:40.428Z,54.60
2019-02-22T18:35:08.893Z,54.70
2019-02-22T18:37:37.399Z,54.90
2019-02-22T18:40:09.592Z,54.80
2019-02-22T18:42:38.456Z,54.70
2019-02-22T18:48:48.062Z,54.70
2019-02-22T18:51:16.494Z,54.60
2019-02-22T18:53:45.530Z,54.00
2019-02-22T18:56:13.826Z,53.60
2019-02-22T18:58:42.309Z,53.30
2019-02-22T19:01:11.073Z,52.80
2019-02-22T19:03:39.461Z,52.60
2019-02-22T19:06:08.445Z,52.60
2019-02-22T19:08:37.073Z,53.00
2019-02-22T19:11:05.459Z,53.20
2019-02-22T19:13:34.091Z,53.40
2019-02-22T19:16:02.679Z,54.40
2019-02-22T19:18:31.276Z,54.30
2019-02-22T19:20:59.955Z,54.20
2019-02-22T19:23:28.398Z,54.40
2019-02-22T19:25:57.845Z,54.50
2019-02-22T19:28:26.518Z,54.90
2019-02-22T19:30:55.111Z,55.00
2019-02-22T19:33:23.535Z,55.00
2019-02-22T19:35:51.874Z,55.10
2019-02-22T19:38:20.235Z,55.40
2019-02-22T19:40:48.817Z,55.20
2019-02-22T19:43:17.423Z,55.50
2019-02-22T19:45:45.728Z,55.60
2019-02-22T19:48:14.315Z,55.70
2019-02-22T19:50:42.731Z,55.70
2019-02-22T19:53:11.332Z,55.70
2019-02-22T19:55:39.645Z,55.80
2019-02-22T19:58:08.398Z,55.50
2019-02-22T20:00:36.980Z,55.50
2019-02-22T20:03:06.085Z,55.50
2019-02-22T20:05:35.156Z,55.30
2019-02-22T20:08:03.657Z,55.00
2019-02-22T20:10:32.352Z,55.20
2019-02-22T20:13:01.123Z,55.10
2019-02-22T20:15:30.121Z,54.80
2019-02-22T20:17:58.702Z,54.70
2019-02-22T20:20:27.460Z,54.70
2019-02-22T20:22:56.179Z,54.60
2019-02-22T20:25:24.753Z,54.70
2019-02-22T20:27:53.351Z,54.50
2019-02-22T20:30:21.938Z,54.50
2019-02-22T20:32:50.518Z,54.50
2019-02-22T20:35:24.937Z,54.40
2019-02-22T20:37:53.697Z,54.30
2019-02-22T20:40:22.152Z,54.10
2019-02-22T20:42:50.608Z,54.80
2019-02-22T20:45:19.363Z,54.10
2019-02-22T20:47:47.688Z,53.90
2019-02-22T20:50:16.327Z,54.00
2019-02-22T20:52:44.635Z,53.90
2019-02-22T20:55:12.955Z,53.80
2019-02-22T20:57:41.239Z,53.90
2019-02-22T21:00:18.966Z,53.80
2019-02-22T21:02:47.549Z,53.70
2019-02-22T21:05:16.241Z,53.50
2019-02-22T21:07:45.014Z,53.60
2019-02-22T21:10:23.844Z,53.30
2019-02-22T21:12:52.547Z,52.90
2019-02-22T21:15:20.907Z,52.70
2019-02-22T21:17:49.488Z,52.80
2019-02-22T21:20:19.262Z,52.80
2019-02-22T21:22:47.893Z,53.00
2019-02-22T21:25:16.525Z,53.20
2019-02-22T21:27:45.173Z,53.20
2019-02-22T21:30:15.965Z,53.30
2019-02-22T21:32:44.679Z,53.10
2019-02-22T21:35:13.303Z,52.90
2019-02-22T21:37:42.936Z,53.00
2019-02-22T21:40:12.281Z,52.90
2019-02-22T21:42:40.676Z,53.10
2019-02-22T21:45:13.904Z,53.20
2019-02-22T21:47:53.776Z,53.20
2019-02-22T21:50:13.733Z,53.00
2019-02-22T21:52:42.457Z,52.80
2019-02-22T21:55:13.500Z,52.90
2019-02-22T21:57:42.087Z,53.00
2019-02-22T22:00:18.582Z,52.80
2019-02-22T22:02:47.008Z,52.80
2019-02-22T22:05:15.626Z,52.80
2019-02-22T22:07:44.091Z,52.70
2019-02-22T22:10:12.694Z,53.20
2019-02-22T22:12:41.381Z,53.00
2019-02-22T22:15:16.093Z,52.60
2019-02-22T22:17:44.382Z,52.60
2019-02-22T22:20:12.963Z,52.70
2019-02-22T22:22:41.250Z,53.00
2019-02-22T22:25:13.841Z,52.90
2019-02-22T22:27:42.138Z,52.80
2019-02-22T22:30:13.155Z,52.80
2019-02-22T22:32:41.768Z,52.80
2019-02-22T22:35:12.187Z,53.00
2019-02-22T22:37:40.551Z,53.10
2019-02-22T22:40:10.573Z,53.10
2019-02-22T22:42:38.890Z,52.90
2019-02-22T22:45:14.574Z,53.00
2019-02-22T22:47:43.151Z,52.90
2019-02-22T22:50:15.922Z,52.60
2019-02-22T22:52:44.217Z,52.60
2019-02-22T22:55:12.726Z,52.60
2019-02-22T22:57:41.116Z,52.80
2019-02-22T23:00:19.145Z,52.80
2019-02-22T23:02:47.456Z,52.90
2019-02-22T23:05:16.033Z,53.00
2019-02-22T23:07:44.621Z,52.90
2019-02-22T23:10:12.911Z,53.00
2019-02-22T23:12:44.212Z,53.10
2019-02-22T23:15:12.118Z,52.80
2019-02-22T23:17:40.406Z,52.90
2019-02-22T23:20:09.082Z,52.90
2019-02-22T23:22:37.505Z,53.00
2019-02-22T23:25:05.812Z,52.70
2019-02-22T23:27:35.182Z,52.90
2019-02-22T23:30:04.058Z,52.80
2019-02-22T23:32:32.351Z,52.90
2019-02-22T23:35:00.659Z,52.90
2019-02-22T23:37:29.289Z,53.00
2019-02-22T23:39:57.991Z,52.70
2019-02-22T23:42:26.578Z,52.70
2019-02-22T23:44:54.890Z,52.60
2019-02-22T23:47:23.222Z,52.60
2019-02-22T23:49:52.020Z,52.70
2019-02-22T23:52:20.735Z,53.10
2019-02-22T23:54:49.057Z,53.10
2019-02-22T23:57:17.619Z,52.80
2019-02-22T23:59:46.249Z,52.80
